createdAt,value
2022-10-18T00:02:10.964Z,101493.38
2022-10-18T00:02:19.600Z,101493.38
2022-10-18T00:07:10.691Z,101497.19
2022-10-18T00:08:07.037Z,101496.04000000001
2022-10-18T00:11:46.267Z,101496.04000000001
2022-10-18T00:12:10.701Z,101496.04000000001
2022-10-18T00:17:10.909Z,101492.53
2022-10-18T00:20:32.715Z,101486.77
2022-10-18T00:22:11.183Z,101486.77
2022-10-18T00:22:42.047Z,101486.77
2022-10-18T00:27:11.440Z,101476.62
2022-10-18T00:30:09.826Z,101468.87000000001
2022-10-18T00:32:11.632Z,101468.87000000001
2022-10-18T00:36:52.265Z,101461.51999999999
2022-10-18T00:37:10.556Z,101461.51999999999
2022-10-18T00:42:16.095Z,101461.32
2022-10-18T00:47:07.369Z,101463.01
2022-10-18T00:47:13.339Z,101463.01
2022-10-18T00:52:16.179Z,101461.58
2022-10-18T00:56:45.403Z,101459.41
2022-10-18T00:57:12.757Z,101459.41
2022-10-18T01:02:00.453Z,101447.17000000001
2022-10-18T01:02:10.835Z,101447.17000000001
2022-10-18T01:07:19.418Z,101441.33
2022-10-18T01:12:19.749Z,101435.88
2022-10-18T01:17:17.038Z,101426.0
2022-10-18T01:19:57.426Z,101418.26999999999
2022-10-18T01:22:18.642Z,101418.26999999999
2022-10-18T01:27:26.534Z,101411.56
2022-10-18T01:32:15.572Z,101406.54
2022-10-18T01:37:15.091Z,101405.1
2022-10-18T01:42:14.332Z,101402.39
2022-10-18T01:47:12.950Z,101397.64
2022-10-18T01:47:46.244Z,101397.64
2022-10-18T01:49:57.588Z,101402.37
2022-10-18T01:51:34.210Z,101402.37
2022-10-18T01:52:12.438Z,101402.37
2022-10-18T01:57:19.093Z,101398.5
2022-10-18T02:02:24.177Z,101395.51
2022-10-18T02:07:20.437Z,101399.44
2022-10-18T02:12:13.417Z,101405.17
2022-10-18T02:17:12.095Z,101407.1
2022-10-18T02:22:12.367Z,101410.02
2022-10-18T02:27:11.742Z,101403.41
2022-10-18T02:32:17.469Z,101402.76
2022-10-18T02:37:10.952Z,101396.25
2022-10-18T02:39:46.304Z,101396.04000000001
2022-10-18T02:42:11.348Z,101396.04000000001
2022-10-18T02:47:11.404Z,101394.06999999999
2022-10-18T02:52:10.683Z,101394.11
2022-10-18T02:57:10.500Z,101386.97
2022-10-18T03:02:10.673Z,101394.86
2022-10-18T03:07:10.853Z,101401.44
2022-10-18T03:12:10.462Z,101397.79999999999
2022-10-18T03:17:10.605Z,101398.11
2022-10-18T03:22:10.705Z,101392.01000000001
2022-10-18T03:27:10.606Z,101400.53
2022-10-18T03:32:10.523Z,101399.37999999999
2022-10-18T03:37:10.797Z,101389.01
2022-10-18T03:42:10.417Z,101389.4
2022-10-18T03:45:31.439Z,101386.99
2022-10-18T03:47:11.339Z,101386.99
2022-10-18T03:52:10.680Z,101384.09
2022-10-18T03:57:10.434Z,101390.34
2022-10-18T04:02:10.528Z,101388.26000000001
2022-10-18T04:07:10.795Z,101395.67
2022-10-18T04:12:10.434Z,101400.23
2022-10-18T04:17:10.478Z,101394.55
2022-10-18T04:22:11.212Z,101394.36
2022-10-18T04:27:10.537Z,101394.02
2022-10-18T04:32:10.552Z,101403.74
2022-10-18T04:37:10.661Z,101408.54000000001
2022-10-18T04:42:10.465Z,101395.22
2022-10-18T04:47:10.439Z,101397.34
2022-10-18T04:52:11.013Z,101397.92
2022-10-18T04:57:10.625Z,101406.76
2022-10-18T05:02:10.584Z,101401.48000000001
2022-10-18T05:07:10.908Z,101410.39
2022-10-18T05:10:33.837Z,101413.33
2022-10-18T05:12:10.407Z,101413.33
2022-10-18T05:14:24.650Z,101413.23
2022-10-18T05:17:10.702Z,101413.23
2022-10-18T05:17:48.263Z,101413.23
2022-10-18T05:20:43.923Z,101413.11
2022-10-18T05:22:10.522Z,101413.11
2022-10-18T05:23:55.698Z,101417.58
2022-10-18T05:26:06.395Z,101417.58
2022-10-18T05:27:10.667Z,101417.58
2022-10-18T05:32:11.198Z,101425.94
2022-10-18T05:37:10.574Z,101420.04
2022-10-18T05:42:11.044Z,101427.81
2022-10-18T05:47:10.743Z,101433.53
2022-10-18T05:52:10.507Z,101438.84000000001
2022-10-18T05:57:10.541Z,101435.24
2022-10-18T06:02:11.327Z,101438.51
2022-10-18T06:07:11.512Z,101443.67
2022-10-18T06:12:10.646Z,101449.65
2022-10-18T06:16:32.070Z,101452.25
2022-10-18T06:17:10.748Z,101452.25
2022-10-18T06:20:16.140Z,101449.64
2022-10-18T06:22:11.359Z,101449.64
2022-10-18T06:27:10.824Z,101446.01
2022-10-18T06:32:10.510Z,101450.31
2022-10-18T06:37:10.457Z,101452.52
2022-10-18T06:42:10.981Z,101456.34
2022-10-18T06:47:06.887Z,101444.64
2022-10-18T06:47:10.536Z,101444.64
2022-10-18T06:52:10.391Z,101451.83
2022-10-18T06:57:10.933Z,101448.44
2022-10-18T07:02:14.702Z,101449.27
2022-10-18T07:07:10.346Z,101453.03
2022-10-18T07:12:11.489Z,101457.92
2022-10-18T07:17:10.572Z,101449.61
2022-10-18T07:22:10.443Z,101453.8
2022-10-18T07:27:11.900Z,101461.21
2022-10-18T07:32:10.341Z,101461.36
2022-10-18T07:37:10.423Z,101455.7
2022-10-18T07:42:10.653Z,101446.3
2022-10-18T07:47:10.609Z,101444.11
2022-10-18T07:52:10.555Z,101442.52
2022-10-18T07:57:10.420Z,101438.62000000001
2022-10-18T08:02:10.402Z,101430.14
2022-10-18T08:07:10.270Z,101425.43
2022-10-18T08:09:13.195Z,101422.29
2022-10-18T08:12:10.376Z,101422.29
2022-10-18T08:15:35.463Z,101414.51
2022-10-18T08:17:04.820Z,101414.51
2022-10-18T08:17:10.171Z,101414.51
2022-10-18T08:19:52.949Z,101415.11
2022-10-18T08:21:43.470Z,101415.11
2022-10-18T08:22:10.355Z,101415.11
2022-10-18T08:26:40.734Z,101407.78
2022-10-18T08:27:10.461Z,101407.78
2022-10-18T08:32:12.216Z,101408.18000000001
2022-10-18T08:32:17.683Z,101408.18000000001
2022-10-18T08:37:10.519Z,101391.45999999999
2022-10-18T08:42:22.688Z,101385.96
2022-10-18T08:47:14.049Z,101382.12
2022-10-18T08:52:15.290Z,101388.99
2022-10-18T08:57:15.012Z,101395.14
2022-10-18T09:02:19.660Z,101382.97
2022-10-18T09:07:22.158Z,101382.05
2022-10-18T09:12:30.300Z,101379.49
2022-10-18T09:15:05.952Z,101380.56
2022-10-18T09:16:31.465Z,101380.56
2022-10-18T09:17:20.961Z,101380.56
2022-10-18T09:20:11.336Z,101380.56
2022-10-18T09:22:13.181Z,101380.56
2022-10-18T09:27:14.628Z,101383.54000000001
2022-10-18T09:32:22.003Z,101379.47
2022-10-18T09:37:12.765Z,101369.64
2022-10-18T09:38:18.106Z,101367.39
2022-10-18T09:39:31.704Z,101367.39
2022-10-18T09:42:15.762Z,101367.39
2022-10-18T09:43:42.573Z,101361.65999999999
2022-10-18T09:47:17.249Z,101361.65999999999
2022-10-18T09:51:16.841Z,101344.39
2022-10-18T09:52:16.494Z,101344.39
2022-10-18T09:54:40.500Z,101337.91
2022-10-18T09:57:17.192Z,101337.91
2022-10-18T10:02:13.961Z,101330.94
2022-10-18T10:07:01.316Z,101313.9
2022-10-18T10:07:13.552Z,101313.9
2022-10-18T10:12:24.905Z,101317.52
2022-10-18T10:17:21.550Z,101312.59
2022-10-18T10:22:13.310Z,101296.99
2022-10-18T10:27:18.141Z,101287.73
2022-10-18T10:32:13.190Z,101287.12000000001
2022-10-18T10:37:22.698Z,101283.87
2022-10-18T10:42:12.636Z,101281.06
2022-10-18T10:47:27.179Z,101272.72
2022-10-18T10:52:26.976Z,101263.72
2022-10-18T10:57:21.802Z,101262.37
2022-10-18T11:02:19.776Z,101254.35
2022-10-18T11:07:22.197Z,101248.14
2022-10-18T11:12:18.121Z,101238.51
2022-10-18T11:17:16.956Z,101245.06
2022-10-18T11:22:15.366Z,101243.55
2022-10-18T11:27:18.789Z,101235.32
2022-10-18T11:32:18.453Z,101221.53
2022-10-18T11:37:30.010Z,101220.23000000001
2022-10-18T11:42:18.360Z,101212.71
2022-10-18T11:47:19.721Z,101201.76
2022-10-18T11:52:29.119Z,101193.66
2022-10-18T11:57:23.320Z,101181.28
2022-10-18T12:02:30.416Z,101179.31999999999
2022-10-18T12:07:15.728Z,101175.59
2022-10-18T12:11:47.188Z,101172.69
2022-10-18T12:12:15.463Z,101172.69
2022-10-18T12:15:36.227Z,101175.19
2022-10-18T12:17:41.102Z,101175.19
2022-10-18T12:20:03.665Z,101169.89
2022-10-18T12:22:17.667Z,101169.89
2022-10-18T12:27:14.109Z,101157.69
2022-10-18T12:32:13.842Z,101148.5
2022-10-18T12:37:30.213Z,101131.53
2022-10-18T12:42:19.162Z,101129.02
2022-10-18T12:47:20.833Z,101118.38
2022-10-18T12:52:20.822Z,101111.83
2022-10-18T12:57:22.686Z,101105.46
2022-10-18T13:02:21.882Z,101107.48
2022-10-18T13:07:17.801Z,101097.96
2022-10-18T13:12:30.106Z,101088.78
2022-10-18T13:17:18.342Z,101085.78
2022-10-18T13:22:27.746Z,101077.04
2022-10-18T13:27:35.465Z,101072.87
2022-10-18T13:32:22.045Z,101071.43
2022-10-18T13:37:22.837Z,101069.34
2022-10-18T13:42:28.782Z,101066.13
2022-10-18T13:47:12.503Z,101053.2
2022-10-18T13:52:20.820Z,101040.88
2022-10-18T13:57:23.889Z,101043.89
2022-10-18T14:02:49.904Z,101033.04000000001
2022-10-18T14:07:11.545Z,101026.70000000001
2022-10-18T14:12:21.049Z,101028.19
2022-10-18T14:17:24.245Z,101027.03
2022-10-18T14:22:16.763Z,101026.11
2022-10-18T14:27:12.089Z,101013.95
2022-10-18T14:32:20.879Z,101000.2
2022-10-18T14:37:20.552Z,100996.5
2022-10-18T14:42:19.458Z,100989.93000000001
2022-10-18T14:47:15.603Z,100988.09
2022-10-18T14:52:14.087Z,100987.47
2022-10-18T14:57:18.128Z,100991.08
2022-10-18T15:02:13.580Z,100990.09
2022-10-18T15:07:15.569Z,100987.3
2022-10-18T15:12:13.892Z,100985.61
2022-10-18T15:17:17.201Z,100979.35
2022-10-18T15:22:32.571Z,100978.97
2022-10-18T15:27:19.976Z,100977.82999999999
2022-10-18T15:32:18.591Z,100980.12999999999
2022-10-18T15:37:28.773Z,100983.45000000001
2022-10-18T15:42:29.931Z,100977.91
2022-10-18T15:47:20.004Z,100992.04
2022-10-18T15:49:54.468Z,101037.8
2022-10-18T15:52:33.837Z,101037.8
2022-10-18T15:55:22.182Z,100985.68000000001
2022-10-18T15:56:29.546Z,100985.68000000001
2022-10-18T15:57:10.247Z,100985.68000000001
2022-10-18T15:58:17.073Z,101043.26999999999
2022-10-18T15:59:53.328Z,101043.26999999999
2022-10-18T16:01:43.592Z,101043.26999999999
2022-10-18T16:02:12.736Z,101043.26999999999
2022-10-18T16:07:11.176Z,100997.16
2022-10-18T16:12:10.205Z,101055.89
2022-10-18T16:17:16.108Z,101072.63
2022-10-18T16:27:10.156Z,101079.94
2022-10-18T16:32:10.069Z,101068.95
2022-10-18T16:37:10.510Z,101055.97
2022-10-18T16:39:15.211Z,101050.94
2022-10-18T16:40:49.268Z,101050.94
2022-10-18T16:42:10.936Z,101050.94
2022-10-18T16:43:29.652Z,101057.14
2022-10-18T16:47:10.393Z,101057.14
2022-10-18T16:49:02.809Z,101053.52
2022-10-18T16:52:10.142Z,101053.52
2022-10-18T16:57:11.794Z,101064.26
2022-10-18T17:02:11.097Z,101095.68000000001
2022-10-18T17:12:10.119Z,101087.64
2022-10-18T17:17:11.568Z,101092.21
2022-10-18T17:20:07.715Z,101090.47
2022-10-18T17:22:10.138Z,101090.47
2022-10-18T17:27:10.651Z,101098.65
2022-10-18T17:32:10.186Z,101110.41
2022-10-18T17:37:10.195Z,101121.98
2022-10-18T17:42:11.066Z,101120.76
2022-10-18T17:47:10.297Z,101135.61
2022-10-18T17:52:11.094Z,101117.47
2022-10-18T17:57:10.024Z,101113.73
2022-10-18T18:02:10.913Z,101136.63
2022-10-18T18:07:10.166Z,101147.74
2022-10-18T18:12:10.146Z,101140.17
2022-10-18T18:17:10.639Z,101129.98999999999
2022-10-18T18:22:10.071Z,101113.7
2022-10-18T18:27:10.163Z,101104.13
2022-10-18T18:32:10.124Z,101087.37
2022-10-18T18:37:10.001Z,101067.26
2022-10-18T18:42:10.166Z,101079.98999999999
2022-10-18T18:47:13.319Z,101096.88
2022-10-18T18:52:09.971Z,101101.23
2022-10-18T18:57:10.029Z,101110.42
2022-10-18T19:02:10.318Z,101129.3
2022-10-18T19:07:10.008Z,101127.66
2022-10-18T19:10:03.873Z,101126.92
2022-10-18T19:12:10.268Z,101126.92
2022-10-18T19:13:40.616Z,101134.91
2022-10-18T19:17:09.989Z,101134.91
2022-10-18T19:17:58.800Z,101133.42
2022-10-18T19:19:54.045Z,101133.42
2022-10-18T19:21:41.918Z,101133.42
2022-10-18T19:22:10.219Z,101133.42
2022-10-18T19:27:11.567Z,101140.12
2022-10-18T19:29:40.143Z,101120.81
2022-10-18T19:31:41.361Z,101120.81
2022-10-18T19:32:12.429Z,101120.81
2022-10-18T19:37:11.177Z,101135.51999999999
2022-10-18T19:42:14.602Z,101132.86
2022-10-18T19:44:02.708Z,101137.7
2022-10-18T19:47:13.052Z,101137.7
2022-10-18T19:47:23.369Z,101137.7
2022-10-18T19:51:03.209Z,101128.31999999999
2022-10-18T19:52:11.304Z,101128.31999999999
2022-10-18T19:57:10.256Z,101129.14
2022-10-18T19:57:19.871Z,101129.14
2022-10-18T20:02:12.010Z,101117.6
2022-10-18T20:06:54.986Z,101117.86
2022-10-18T20:07:09.818Z,101117.86
2022-10-18T20:12:10.408Z,101121.06
2022-10-18T20:17:12.336Z,101111.69
2022-10-18T20:17:52.359Z,101111.69
2022-10-18T20:22:09.930Z,101105.61
2022-10-18T20:26:55.449Z,101103.89
2022-10-18T20:27:09.851Z,101103.89
2022-10-18T20:32:10.025Z,101098.11
2022-10-18T20:37:10.050Z,101101.97
2022-10-18T20:42:09.995Z,101099.73
2022-10-18T20:47:09.972Z,101098.75
2022-10-18T20:52:10.163Z,101105.64
2022-10-18T20:54:34.069Z,101106.37000000001
2022-10-18T20:57:09.892Z,101106.37000000001
2022-10-18T21:02:11.113Z,101107.11
2022-10-18T21:07:10.152Z,101110.38
2022-10-18T21:17:10.037Z,101102.95
2022-10-18T21:19:02.330Z,101098.12
2022-10-18T21:21:39.818Z,101098.12
2022-10-18T21:22:09.874Z,101098.12
2022-10-18T21:25:55.063Z,101094.76
2022-10-18T21:27:09.861Z,101094.76
2022-10-18T21:30:39.638Z,101096.14
2022-10-18T21:32:09.958Z,101096.14
2022-10-18T21:35:12.230Z,101089.48000000001
2022-10-18T21:37:09.910Z,101089.48000000001
2022-10-18T21:41:26.543Z,101094.41
2022-10-18T21:42:10.166Z,101094.41
2022-10-18T21:47:10.068Z,101095.4
2022-10-18T21:52:10.189Z,101102.07
2022-10-18T21:57:09.868Z,101099.41
2022-10-18T22:02:09.878Z,101105.83
2022-10-18T22:07:09.981Z,101096.79
2022-10-18T22:12:10.948Z,101097.47
2022-10-18T22:17:10.227Z,101092.44
2022-10-18T22:22:09.995Z,101088.26000000001
2022-10-18T22:27:10.094Z,101087.11
2022-10-18T22:32:09.949Z,101086.3
2022-10-18T22:37:10.065Z,101084.52
2022-10-18T22:42:10.064Z,101085.02
2022-10-18T22:47:10.406Z,101076.62
2022-10-18T22:52:09.977Z,101079.61
2022-10-18T22:57:09.989Z,101084.56
2022-10-18T23:02:09.874Z,101075.81999999999
2022-10-18T23:07:10.243Z,101079.11
2022-10-18T23:12:09.863Z,101080.74
2022-10-18T23:17:10.140Z,101082.3
2022-10-18T23:22:10.070Z,101080.69
2022-10-18T23:27:10.633Z,101074.67
2022-10-18T23:32:09.877Z,101068.61
2022-10-18T23:37:10.033Z,101080.16
2022-10-18T23:39:36.916Z,101069.97
2022-10-18T23:42:09.838Z,101069.97
2022-10-18T23:47:09.895Z,101064.94
2022-10-18T23:52:10.144Z,101072.06
2022-10-18T23:57:09.774Z,101084.49
